SIA531 EGLL-WSSS
Flight info
| Callsign | SIA531 |
|---|---|
| Flight time | N/A |
| Altitude | 33000 |
| Route | DET L6 DVR L9 KONAN UL607 REMBA DCT MATUG DCT GUBAX DCT KOMIB L984 SULUS Z650 VEMUT DCT DITIS DCT ERGOM DCT DINRO DCT UDROS/N0485F350 UM859 KARDE UL851 TBN UR317 REBLO M11 LUSAL N199 BAKUV N701 LARGI B701 TUGTA A909 BABUM A477 AKRAM R226 MANAT/K0920F370 Z777 INDUD M875 AMDAR/N0500F370 M875 TAPIS L509 LAJAK M881 LAKRA/N0506F360 G325 ZB/N0500F370 G202 RK P628 IBANI L510 MABDU/N0492F390 L510 GIVAL P628 VPL Y503 RINBA Y507 MAKNA Y511 TOPOR A464 ARAMA DCT TEBUN TEBUN1A |
| Aircraft | A359/H-SDE2E3GHIJ3J4J5LM1ORWXY/LB1D1 |
Departure
| Time | 2026-04-30 19:53 |
|---|---|
| Airport | London Heathrow Airport (EGLL) |
Arrival
| Time | N/A |
|---|---|
| Airport | Singapore Changi Airport (WSSS) |
| Time | Latitude | Longitude | Altitude | Speed | Heading |
|---|---|---|---|---|---|
| 2026-04-30 19:30 | 51.46850 | -0.46347 | 92 ft | 0 kts | 56° |
| 2026-04-30 19:44 | 51.46844 | -0.46361 | 96 ft | 3 kts | 56° |
| 2026-04-30 19:44 | 51.46834 | -0.46385 | 94 ft | 3 kts | 56° |
| 2026-04-30 19:44 | 51.46822 | -0.46408 | 92 ft | 3 kts | 54° |
| 2026-04-30 19:45 | 51.46814 | -0.46436 | 94 ft | 3 kts | 93° |
| 2026-04-30 19:45 | 51.46818 | -0.46466 | 92 ft | 3 kts | 132° |
| 2026-04-30 19:45 | 51.46825 | -0.46477 | 94 ft | 0 kts | 143° |
| 2026-04-30 19:47 | 51.46825 | -0.46476 | 92 ft | 1 kts | 143° |
| 2026-04-30 19:48 | 51.46799 | -0.46448 | 97 ft | 8 kts | 154° |
| 2026-04-30 19:48 | 51.46753 | -0.46502 | 95 ft | 12 kts | 258° |
| 2026-04-30 19:48 | 51.46746 | -0.46683 | 96 ft | 21 kts | 267° |
| 2026-04-30 19:48 | 51.46745 | -0.46937 | 96 ft | 24 kts | 270° |
| 2026-04-30 19:49 | 51.46746 | -0.47203 | 96 ft | 24 kts | 270° |
| 2026-04-30 19:49 | 51.46743 | -0.47721 | 94 ft | 23 kts | 269° |
| 2026-04-30 19:49 | 51.46745 | -0.47980 | 94 ft | 23 kts | 270° |
| 2026-04-30 19:50 | 51.46744 | -0.48235 | 92 ft | 22 kts | 270° |
| 2026-04-30 19:50 | 51.46726 | -0.48436 | 97 ft | 15 kts | 225° |
| 2026-04-30 19:50 | 51.46637 | -0.48468 | 93 ft | 5 kts | 179° |
| 2026-04-30 19:50 | 51.46636 | -0.48468 | 93 ft | 0 kts | 179° |
| 2026-04-30 19:51 | 51.46635 | -0.48468 | 93 ft | 1 kts | 179° |
| 2026-04-30 19:51 | 51.46601 | -0.48467 | 96 ft | 8 kts | 179° |
| 2026-04-30 19:51 | 51.46521 | -0.48464 | 94 ft | 14 kts | 168° |
| 2026-04-30 19:52 | 51.46479 | -0.48334 | 93 ft | 14 kts | 91° |
| 2026-04-30 19:52 | 51.46480 | -0.48021 | 96 ft | 58 kts | 89° |
| 2026-04-30 19:52 | 51.46483 | -0.47016 | 96 ft | 122 kts | 90° |
| 2026-04-30 19:52 | 51.46499 | -0.45341 | 99 ft | 177 kts | 87° |
| 2026-04-30 19:53 | 51.46548 | -0.43312 | 785 ft | 178 kts | 87° |
| 2026-04-30 19:53 | 51.46321 | -0.41432 | 1652 ft | 172 kts | 116° |
| 2026-04-30 19:53 | 51.45716 | -0.39744 | 1996 ft | 181 kts | 123° |
| 2026-04-30 19:53 | 51.45054 | -0.37928 | 2167 ft | 197 kts | 119° |
| 2026-04-30 19:54 | 51.44453 | -0.35860 | 2384 ft | 213 kts | 114° |
| 2026-04-30 19:54 | 51.43915 | -0.33580 | 2653 ft | 227 kts | 112° |
| 2026-04-30 19:54 | 51.43380 | -0.31151 | 3069 ft | 234 kts | 112° |
| 2026-04-30 19:54 | 51.42863 | -0.28682 | 3522 ft | 239 kts | 109° |
| 2026-04-30 19:55 | 51.42453 | -0.26014 | 3985 ft | 244 kts | 106° |
| 2026-04-30 19:55 | 51.42085 | -0.23336 | 4361 ft | 252 kts | 106° |
| 2026-04-30 19:55 | 51.41709 | -0.20575 | 4784 ft | 258 kts | 105° |
| 2026-04-30 19:55 | 51.41317 | -0.17707 | 5200 ft | 263 kts | 105° |
| 2026-04-30 19:56 | 51.40928 | -0.14861 | 5698 ft | 265 kts | 105° |
| 2026-04-30 19:56 | 51.40530 | -0.11949 | 6222 ft | 267 kts | 105° |
| 2026-04-30 19:56 | 51.40129 | -0.09041 | 6760 ft | 268 kts | 105° |
| 2026-04-30 19:56 | 51.39726 | -0.06129 | 7280 ft | 270 kts | 105° |
| 2026-04-30 19:57 | 51.39319 | -0.03199 | 7819 ft | 271 kts | 105° |
| 2026-04-30 19:57 | 51.38910 | -0.00255 | 8374 ft | 272 kts | 105° |
| 2026-04-30 19:57 | 51.38499 | 0.02699 | 8965 ft | 273 kts | 105° |
| 2026-04-30 19:57 | 51.38081 | 0.05703 | 9536 ft | 274 kts | 105° |
| 2026-04-30 19:58 | 51.37667 | 0.08671 | 10092 ft | 276 kts | 105° |
| 2026-04-30 19:58 | 51.37246 | 0.11700 | 10496 ft | 283 kts | 105° |
| 2026-04-30 19:58 | 51.36802 | 0.14840 | 10728 ft | 295 kts | 105° |
| 2026-04-30 19:58 | 51.36337 | 0.18121 | 10903 ft | 309 kts | 105° |
| 2026-04-30 19:59 | 51.35866 | 0.21478 | 11158 ft | 320 kts | 105° |
| 2026-04-30 19:59 | 51.35367 | 0.25015 | 11423 ft | 331 kts | 105° |
| 2026-04-30 19:59 | 51.34316 | 0.32403 | 11900 ft | 352 kts | 105° |
| 2026-04-30 20:00 | 51.33762 | 0.36292 | 12128 ft | 363 kts | 105° |
| 2026-04-30 20:00 | 51.33192 | 0.40284 | 12358 ft | 372 kts | 105° |
| 2026-04-30 20:00 | 51.32609 | 0.44359 | 12659 ft | 377 kts | 105° |
| 2026-04-30 20:00 | 51.32027 | 0.48435 | 13055 ft | 381 kts | 104° |
| 2026-04-30 20:01 | 51.30839 | 0.56722 | 13938 ft | 386 kts | 105° |
| 2026-04-30 20:01 | 51.30227 | 0.60949 | 14300 ft | 389 kts | 105° |
| 2026-04-30 20:01 | 51.29563 | 0.65089 | 14656 ft | 391 kts | 107° |
| 2026-04-30 20:02 | 51.27994 | 0.73460 | 15413 ft | 395 kts | 109° |
| 2026-04-30 20:02 | 51.27176 | 0.77693 | 15797 ft | 398 kts | 109° |
| 2026-04-30 20:03 | 51.25561 | 0.86184 | 16577 ft | 403 kts | 108° |
| 2026-04-30 20:03 | 51.24756 | 0.90491 | 16971 ft | 406 kts | 108° |
| 2026-04-30 20:03 | 51.23948 | 0.94843 | 17396 ft | 409 kts | 108° |
| 2026-04-30 20:03 | 51.23138 | 0.99214 | 17727 ft | 412 kts | 108° |
| 2026-04-30 20:04 | 51.22325 | 1.03594 | 18111 ft | 415 kts | 108° |
| 2026-04-30 20:04 | 51.21498 | 1.08046 | 18500 ft | 418 kts | 108° |
| 2026-04-30 20:04 | 51.20668 | 1.12497 | 18855 ft | 420 kts | 108° |
| 2026-04-30 20:05 | 51.19000 | 1.21400 | 19626 ft | 422 kts | 108° |
| 2026-04-30 20:05 | 51.18152 | 1.25911 | 20028 ft | 423 kts | 108° |
| 2026-04-30 20:05 | 51.16553 | 1.34960 | 20816 ft | 428 kts | 102° |
| 2026-04-30 20:06 | 51.16122 | 1.39685 | 21222 ft | 430 kts | 98° |
| 2026-04-30 20:06 | 51.15814 | 1.44378 | 21604 ft | 432 kts | 97° |
| 2026-04-30 20:06 | 51.15565 | 1.49179 | 21996 ft | 435 kts | 96° |
| 2026-04-30 20:06 | 51.15346 | 1.53996 | 22396 ft | 437 kts | 96° |
| 2026-04-30 20:07 | 51.15131 | 1.58846 | 22809 ft | 438 kts | 96° |
| 2026-04-30 20:07 | 51.14912 | 1.63656 | 23213 ft | 440 kts | 96° |
| 2026-04-30 20:07 | 51.14445 | 1.73408 | 23965 ft | 444 kts | 96° |
| 2026-04-30 20:08 | 51.14199 | 1.78327 | 24290 ft | 446 kts | 96° |
| 2026-04-30 20:08 | 51.13949 | 1.83259 | 24589 ft | 448 kts | 96° |
| 2026-04-30 20:08 | 51.13693 | 1.88244 | 24909 ft | 450 kts | 96° |
| 2026-04-30 20:08 | 51.13439 | 1.93163 | 25234 ft | 451 kts | 96° |
| 2026-04-30 20:09 | 51.13180 | 1.98180 | 25539 ft | 453 kts | 96° |
| 2026-04-30 20:09 | 51.12919 | 2.03200 | 25842 ft | 455 kts | 96° |
| 2026-04-30 20:09 | 51.12383 | 2.13267 | 26443 ft | 459 kts | 97° |
| 2026-04-30 20:10 | 51.11827 | 2.23467 | 27032 ft | 463 kts | 97° |
| 2026-04-30 20:10 | 51.11548 | 2.28528 | 27327 ft | 465 kts | 97° |
| 2026-04-30 20:10 | 51.11262 | 2.33701 | 27603 ft | 467 kts | 97° |
| 2026-04-30 20:11 | 51.10689 | 2.43990 | 28152 ft | 470 kts | 97° |
| 2026-04-30 20:11 | 51.10397 | 2.49187 | 28410 ft | 472 kts | 97° |
| 2026-04-30 20:11 | 51.10100 | 2.54415 | 28667 ft | 474 kts | 97° |
| 2026-04-30 20:12 | 51.09349 | 2.64826 | 29183 ft | 474 kts | 103° |
| 2026-04-30 20:12 | 51.08578 | 2.69925 | 29583 ft | 472 kts | 106° |
| 2026-04-30 20:12 | 51.07725 | 2.74967 | 29942 ft | 471 kts | 107° |
| 2026-04-30 20:13 | 51.06832 | 2.79997 | 30267 ft | 470 kts | 108° |
| 2026-04-30 20:13 | 51.05931 | 2.84944 | 30532 ft | 469 kts | 107° |
| 2026-04-30 20:13 | 51.05014 | 2.89932 | 30754 ft | 470 kts | 107° |
| 2026-04-30 20:13 | 51.04105 | 2.94873 | 31004 ft | 469 kts | 107° |
| 2026-04-30 20:14 | 51.03186 | 2.99848 | 31260 ft | 468 kts | 107° |
| 2026-04-30 20:14 | 51.02266 | 3.04832 | 31499 ft | 468 kts | 107° |
| 2026-04-30 20:14 | 51.01349 | 3.09794 | 31723 ft | 467 kts | 107° |
| 2026-04-30 20:14 | 51.00432 | 3.14759 | 31953 ft | 467 kts | 107° |
| 2026-04-30 20:15 | 50.99527 | 3.19647 | 32167 ft | 466 kts | 107° |
| 2026-04-30 20:15 | 50.98606 | 3.24608 | 32393 ft | 466 kts | 107° |
| 2026-04-30 20:15 | 50.97686 | 3.29554 | 32604 ft | 465 kts | 107° |
| 2026-04-30 20:15 | 50.96775 | 3.34437 | 32728 ft | 467 kts | 107° |
| 2026-04-30 20:16 | 50.95844 | 3.39416 | 32877 ft | 467 kts | 107° |
| 2026-04-30 20:16 | 50.94916 | 3.44360 | 33087 ft | 467 kts | 107° |
| 2026-04-30 20:16 | 50.93998 | 3.49243 | 33237 ft | 467 kts | 107° |
| 2026-04-30 20:17 | 50.92115 | 3.59220 | 33255 ft | 473 kts | 107° |
| 2026-04-30 20:17 | 50.90232 | 3.69152 | 33254 ft | 472 kts | 108° |
| 2026-04-30 20:18 | 50.88306 | 3.79135 | 33256 ft | 472 kts | 107° |
| 2026-04-30 20:18 | 50.86378 | 3.89045 | 33263 ft | 472 kts | 108° |
| 2026-04-30 20:19 | 50.84446 | 3.98947 | 33273 ft | 472 kts | 108° |
| 2026-04-30 20:19 | 50.82826 | 4.07217 | 33278 ft | 472 kts | 108° |
| 2026-04-30 20:20 | 50.80551 | 4.18781 | 33284 ft | 472 kts | 108° |
| 2026-04-30 20:20 | 50.78915 | 4.27057 | 33287 ft | 473 kts | 108° |
| 2026-04-30 20:21 | 50.76940 | 4.36996 | 33289 ft | 473 kts | 108° |
| 2026-04-30 20:21 | 50.74970 | 4.46860 | 33288 ft | 473 kts | 108° |
| 2026-04-30 20:22 | 50.72987 | 4.56741 | 33285 ft | 473 kts | 108° |